createdAt,value
2023-02-14T00:01:50.657Z,30.63
2023-02-14T00:03:53.066Z,25.13
2023-02-14T00:05:55.156Z,21.33
2023-02-14T00:07:57.282Z,26.45
2023-02-14T00:09:59.443Z,23.02
2023-02-14T00:12:01.517Z,25.58
2023-02-14T00:14:22.531Z,23.83
2023-02-14T00:16:24.829Z,21.60
2023-02-14T00:18:45.500Z,20.33
2023-02-14T00:20:47.630Z,20.27
2023-02-14T00:22:49.833Z,27.40
2023-02-14T00:24:51.909Z,18.52
2023-02-14T00:26:54.159Z,21.40
2023-02-14T00:28:56.295Z,23.63
2023-02-14T00:30:58.817Z,29.02
2023-02-14T00:35:03.093Z,30.67
2023-02-14T00:37:05.207Z,22.15
2023-02-14T00:39:08.913Z,17.48
2023-02-14T00:41:19.276Z,21.50
2023-02-14T00:43:21.351Z,25.25
2023-02-14T00:45:23.397Z,19.00
2023-02-14T00:47:25.514Z,23.05
2023-02-14T00:49:27.595Z,20.98
2023-02-14T00:51:29.842Z,18.95
2023-02-14T00:53:31.998Z,18.98
2023-02-14T00:55:34.087Z,25.17
2023-02-14T00:57:36.172Z,17.35
2023-02-14T00:59:38.304Z,25.45
2023-02-14T01:01:40.388Z,18.40
2023-02-14T01:03:42.459Z,19.27
2023-02-14T01:05:44.590Z,18.67
2023-02-14T01:07:46.742Z,17.65
2023-02-14T01:09:48.846Z,18.42
2023-02-14T01:11:51.122Z,21.48
2023-02-14T01:13:55.446Z,33.03
2023-02-14T01:15:57.534Z,20.48
2023-02-14T01:18:00.080Z,20.33
2023-02-14T01:20:02.176Z,18.48
2023-02-14T01:22:04.271Z,20.40
2023-02-14T01:24:07.772Z,16.88
2023-02-14T01:26:10.111Z,18.40
2023-02-14T01:28:12.138Z,23.85
2023-02-14T01:30:15.005Z,19.38
2023-02-14T01:32:17.153Z,16.02
2023-02-14T01:34:19.306Z,20.70
2023-02-14T01:36:22.785Z,25.02
2023-02-14T01:38:24.854Z,31.17
2023-02-14T01:40:26.902Z,17.85
2023-02-14T01:42:29.347Z,17.48
2023-02-14T01:44:36.782Z,21.02
2023-02-14T01:46:38.915Z,21.77
2023-02-14T01:48:41.066Z,16.83
2023-02-14T01:50:44.665Z,20.13
2023-02-14T01:52:51.163Z,21.80
2023-02-14T01:55:10.451Z,19.88
2023-02-14T01:57:13.794Z,26.02
2023-02-14T01:59:19.806Z,26.17
2023-02-14T02:01:22.007Z,22.02
2023-02-14T02:03:37.615Z,22.60
2023-02-14T02:05:43.719Z,22.33
2023-02-14T02:07:45.849Z,20.15
2023-02-14T02:09:52.330Z,22.33
2023-02-14T02:11:54.435Z,21.35
2023-02-14T02:13:56.505Z,21.75
2023-02-14T02:16:56.783Z,23.30
2023-02-14T02:19:38.548Z,19.20
2023-02-14T02:21:49.437Z,18.83
2023-02-14T02:24:28.979Z,26.17
2023-02-14T02:26:42.630Z,20.65
2023-02-14T02:29:47.699Z,24.13
2023-02-14T02:32:15.680Z,25.23
2023-02-14T02:34:36.405Z,15.20
2023-02-14T02:36:51.034Z,25.75
2023-02-14T02:39:29.924Z,20.45
2023-02-14T02:42:17.076Z,21.75
2023-02-14T02:44:46.737Z,23.95
2023-02-14T02:47:27.614Z,19.88
2023-02-14T02:50:30.583Z,17.90
2023-02-14T02:53:03.259Z,20.10
2023-02-14T02:55:23.612Z,19.13
2023-02-14T02:57:37.848Z,23.35
2023-02-14T02:59:42.325Z,17.13
2023-02-14T03:01:49.727Z,23.48
2023-02-14T03:04:21.570Z,21.60
2023-02-14T03:06:23.653Z,18.00
2023-02-14T03:08:25.682Z,18.63
2023-02-14T03:10:31.900Z,23.83
2023-02-14T03:12:39.657Z,21.17
2023-02-14T03:15:14.430Z,14.88
2023-02-14T03:18:03.234Z,18.65
2023-02-14T03:20:17.429Z,20.85
2023-02-14T03:23:16.656Z,20.10
2023-02-14T03:26:00.309Z,22.45
2023-02-14T03:31:20.172Z,25.98
2023-02-14T03:34:01.352Z,19.95
2023-02-14T03:36:21.459Z,21.67
2023-02-14T03:38:50.927Z,18.23
2023-02-14T03:40:58.281Z,19.67
2023-02-14T03:43:10.298Z,15.35
2023-02-14T03:45:18.168Z,18.85
2023-02-14T03:47:24.127Z,17.98
2023-02-14T03:49:30.521Z,17.85
2023-02-14T03:51:34.439Z,24.40
2023-02-14T03:53:38.775Z,18.67
2023-02-14T03:56:23.225Z,22.50
2023-02-14T03:58:28.712Z,17.00
2023-02-14T04:00:30.835Z,22.55
2023-02-14T04:02:48.662Z,21.27
2023-02-14T04:04:50.731Z,20.33
2023-02-14T04:06:52.920Z,17.60
2023-02-14T04:08:55.017Z,20.83
2023-02-14T04:10:59.382Z,19.92
2023-02-14T04:13:01.769Z,18.50
2023-02-14T04:15:04.379Z,23.73
2023-02-14T04:17:25.140Z,21.15
2023-02-14T04:19:27.405Z,17.95
2023-02-14T04:21:29.454Z,17.35
2023-02-14T04:23:31.475Z,19.17
2023-02-14T04:25:33.624Z,21.15
2023-02-14T04:27:35.669Z,22.23
2023-02-14T04:29:40.154Z,18.35
2023-02-14T04:31:43.028Z,25.77
2023-02-14T04:33:46.166Z,26.35
2023-02-14T04:35:49.079Z,21.00
2023-02-14T04:37:51.242Z,18.85
2023-02-14T04:39:53.294Z,18.63
2023-02-14T04:41:55.348Z,20.38
2023-02-14T04:43:57.403Z,18.00
2023-02-14T04:45:59.443Z,19.35
2023-02-14T04:48:01.471Z,20.05
2023-02-14T04:50:04.063Z,21.42
2023-02-14T04:52:06.342Z,23.75
2023-02-14T04:54:08.394Z,25.13
2023-02-14T04:56:10.453Z,19.73
2023-02-14T04:58:12.505Z,18.73
2023-02-14T05:00:15.379Z,21.88
2023-02-14T05:02:17.553Z,23.30
2023-02-14T05:04:19.726Z,24.48
2023-02-14T05:06:21.805Z,24.15
2023-02-14T05:08:24.003Z,18.13
2023-02-14T05:10:26.061Z,21.30
2023-02-14T05:12:28.115Z,21.33
2023-02-14T05:14:30.160Z,20.70
2023-02-14T05:16:32.268Z,20.77
2023-02-14T05:18:34.361Z,22.25
2023-02-14T05:20:36.874Z,23.58
2023-02-14T05:22:38.922Z,24.27
2023-02-14T05:24:41.033Z,23.45
2023-02-14T05:26:43.199Z,19.95
2023-02-14T05:28:46.424Z,26.05
2023-02-14T05:30:49.915Z,22.88
2023-02-14T05:32:52.671Z,22.15
2023-02-14T05:34:54.737Z,28.10
2023-02-14T05:36:57.722Z,25.27
2023-02-14T05:38:59.831Z,23.23
2023-02-14T05:41:02.496Z,23.23
2023-02-14T05:45:07.361Z,25.25
2023-02-14T05:47:11.010Z,20.38
2023-02-14T05:49:14.220Z,21.38
2023-02-14T05:51:16.397Z,23.27
2023-02-14T05:53:18.430Z,26.23
2023-02-14T05:55:20.575Z,24.95
2023-02-14T05:57:24.621Z,25.60
2023-02-14T05:59:26.757Z,21.40
2023-02-14T06:01:28.796Z,28.05
2023-02-14T06:03:30.898Z,31.15
2023-02-14T06:05:32.945Z,28.92
2023-02-14T06:07:35.029Z,25.35
2023-02-14T06:09:37.097Z,26.17
2023-02-14T06:11:39.232Z,20.02
2023-02-14T06:13:41.686Z,25.23
2023-02-14T06:15:43.866Z,24.60
2023-02-14T06:17:47.981Z,28.27
2023-02-14T06:19:50.109Z,29.48
2023-02-14T06:21:52.216Z,23.83
2023-02-14T06:23:54.239Z,27.85
2023-02-14T06:25:56.280Z,19.42
2023-02-14T06:27:58.796Z,30.55
2023-02-14T06:30:01.096Z,20.48
2023-02-14T06:32:06.872Z,28.13
2023-02-14T06:34:09.175Z,25.55
2023-02-14T06:36:11.678Z,25.67
2023-02-14T06:38:13.716Z,25.23
2023-02-14T06:40:15.903Z,20.08
2023-02-14T06:42:17.939Z,21.10
2023-02-14T06:44:20.005Z,20.17
2023-02-14T06:46:23.189Z,24.30
2023-02-14T06:48:25.343Z,21.38
2023-02-14T06:50:27.411Z,18.17
2023-02-14T06:52:29.501Z,19.17
2023-02-14T06:54:31.580Z,18.08
2023-02-14T06:56:33.662Z,31.65
2023-02-14T06:58:35.846Z,18.33
2023-02-14T07:00:37.851Z,17.55
2023-02-14T07:02:39.985Z,29.92
2023-02-14T07:04:42.047Z,28.15
2023-02-14T07:06:45.929Z,24.70
2023-02-14T07:08:48.061Z,24.15
2023-02-14T07:10:50.113Z,20.23
2023-02-14T07:12:52.405Z,19.73
2023-02-14T07:14:54.477Z,17.23
2023-02-14T07:16:56.684Z,21.98
2023-02-14T07:18:58.791Z,24.08
2023-02-14T07:21:01.264Z,19.63
2023-02-14T07:23:05.794Z,17.63
2023-02-14T07:25:08.437Z,16.90
2023-02-14T07:27:10.580Z,24.73
2023-02-14T07:29:12.761Z,19.50
2023-02-14T07:31:16.090Z,25.23
2023-02-14T07:33:18.237Z,20.10
2023-02-14T07:37:22.822Z,21.00
2023-02-14T07:39:24.892Z,25.55
2023-02-14T07:41:27.101Z,21.15
2023-02-14T07:43:29.242Z,23.73
2023-02-14T07:45:31.291Z,18.50
2023-02-14T07:47:33.439Z,21.75
2023-02-14T07:49:35.977Z,14.43
2023-02-14T07:51:38.114Z,18.40
2023-02-14T07:53:41.262Z,19.77
2023-02-14T07:55:43.343Z,21.10
2023-02-14T07:57:49.595Z,16.25
2023-02-14T07:59:51.693Z,19.83
2023-02-14T08:01:53.999Z,20.75
2023-02-14T08:03:56.041Z,21.67
2023-02-14T08:06:19.272Z,26.23
2023-02-14T08:08:31.597Z,26.77
2023-02-14T08:10:33.661Z,17.33
2023-02-14T08:12:54.284Z,17.15
2023-02-14T08:15:35.281Z,20.95
2023-02-14T08:17:38.821Z,20.92
2023-02-14T08:19:41.037Z,21.33
2023-02-14T08:21:43.074Z,20.80
2023-02-14T08:23:47.875Z,23.10
2023-02-14T08:25:50.510Z,14.25
2023-02-14T08:27:52.562Z,22.75
2023-02-14T08:29:55.748Z,23.48
2023-02-14T08:32:00.495Z,19.40
2023-02-14T08:34:02.647Z,20.33
2023-02-14T08:36:06.257Z,19.65
2023-02-14T08:38:08.508Z,21.95
2023-02-14T08:40:11.018Z,25.00
2023-02-14T08:42:29.753Z,16.80
2023-02-14T08:44:31.868Z,19.23
2023-02-14T08:46:34.024Z,19.85
2023-02-14T08:48:55.956Z,14.75
2023-02-14T08:50:58.147Z,19.23
2023-02-14T08:53:00.429Z,19.38
2023-02-14T08:55:22.826Z,19.98
2023-02-14T08:57:45.238Z,15.47
2023-02-14T09:00:08.630Z,15.83
2023-02-14T09:02:13.886Z,13.38
2023-02-14T09:04:16.068Z,16.48
2023-02-14T09:06:19.990Z,17.17
2023-02-14T09:08:22.120Z,13.80
2023-02-14T09:10:24.721Z,22.98
2023-02-14T09:12:47.126Z,18.73
2023-02-14T09:15:10.316Z,16.40
2023-02-14T09:17:32.813Z,18.77
2023-02-14T09:19:55.198Z,23.60
2023-02-14T09:22:17.539Z,22.02
2023-02-14T09:24:41.431Z,18.37
2023-02-14T09:26:57.460Z,28.08
2023-02-14T09:28:59.488Z,23.30
2023-02-14T09:31:13.192Z,21.55
2023-02-14T09:33:20.763Z,20.63
2023-02-14T09:35:22.796Z,20.90
2023-02-14T09:37:24.856Z,18.02
2023-02-14T09:39:43.839Z,23.45
2023-02-14T09:42:09.785Z,20.08
2023-02-14T09:44:24.977Z,20.83
2023-02-14T09:46:29.129Z,21.50
2023-02-14T09:48:39.521Z,16.13
2023-02-14T09:50:47.829Z,14.93
2023-02-14T09:52:56.011Z,20.08
2023-02-14T09:55:01.314Z,16.45
2023-02-14T09:57:33.274Z,16.63
2023-02-14T10:00:18.148Z,13.68
2023-02-14T10:02:39.759Z,14.07
2023-02-14T10:05:43.671Z,20.48
2023-02-14T10:08:16.334Z,15.55
2023-02-14T10:10:40.324Z,15.75
2023-02-14T10:13:14.856Z,13.70
2023-02-14T10:15:45.234Z,19.55
2023-02-14T10:18:09.791Z,17.55
2023-02-14T10:20:38.974Z,22.02
2023-02-14T10:22:48.788Z,20.10
2023-02-14T10:25:07.923Z,14.35
2023-02-14T10:27:40.460Z,16.48
2023-02-14T10:29:58.985Z,18.35
2023-02-14T10:32:03.307Z,20.25
2023-02-14T10:34:15.484Z,17.52
2023-02-14T10:37:03.362Z,20.30
2023-02-14T10:40:00.631Z,19.38
2023-02-14T10:42:34.139Z,20.05
2023-02-14T10:47:40.350Z,24.25
2023-02-14T10:50:26.992Z,20.55
2023-02-14T10:53:03.862Z,18.08
2023-02-14T10:55:40.294Z,20.55
2023-02-14T10:57:45.533Z,16.98
2023-02-14T10:59:58.843Z,13.60
2023-02-14T11:02:26.012Z,16.27
2023-02-14T11:04:48.358Z,16.55
2023-02-14T11:07:19.113Z,26.83
2023-02-14T11:09:41.500Z,17.50
2023-02-14T11:12:03.967Z,14.88
2023-02-14T11:14:32.445Z,13.23
2023-02-14T11:16:55.420Z,16.48
2023-02-14T11:19:27.679Z,17.98
2023-02-14T11:21:33.501Z,13.05
2023-02-14T11:23:46.358Z,13.68
2023-02-14T11:25:52.319Z,13.18
2023-02-14T11:28:08.238Z,14.60
2023-02-14T11:30:45.769Z,13.95
2023-02-14T11:33:22.930Z,15.13
2023-02-14T11:35:37.113Z,16.65
2023-02-14T11:37:44.238Z,14.32
2023-02-14T11:39:46.312Z,13.25
2023-02-14T11:42:11.113Z,12.40
2023-02-14T11:44:36.824Z,21.80
2023-02-14T11:46:52.362Z,13.77
2023-02-14T11:48:58.145Z,11.90
2023-02-14T11:51:14.013Z,13.05
2023-02-14T11:53:22.273Z,10.80
2023-02-14T11:55:35.560Z,11.10
2023-02-14T12:00:00.096Z,14.32
2023-02-14T12:02:36.651Z,11.68
2023-02-14T12:04:46.530Z,13.52
2023-02-14T12:06:49.084Z,14.43
2023-02-14T12:08:51.097Z,13.35
2023-02-14T12:11:17.688Z,12.23
2023-02-14T12:13:28.560Z,18.10
2023-02-14T12:15:43.029Z,12.98
2023-02-14T12:17:45.163Z,13.95
2023-02-14T12:20:12.624Z,13.82
2023-02-14T12:22:21.224Z,17.98
2023-02-14T12:24:34.219Z,14.95
2023-02-14T12:28:47.796Z,12.63
2023-02-14T12:30:49.937Z,14.75
2023-02-14T12:32:59.107Z,14.48
2023-02-14T12:35:14.808Z,12.43
2023-02-14T12:37:36.108Z,15.40
2023-02-14T12:39:51.724Z,17.52
2023-02-14T12:42:17.344Z,18.27
2023-02-14T12:44:46.136Z,12.45
2023-02-14T12:47:04.851Z,13.13
2023-02-14T12:49:33.389Z,14.00
2023-02-14T12:51:58.070Z,9.95
2023-02-14T12:54:18.967Z,13.40
2023-02-14T12:56:45.863Z,14.13
2023-02-14T12:59:04.205Z,6.85
2023-02-14T13:01:28.365Z,9.65
2023-02-14T13:03:40.758Z,14.02
2023-02-14T13:06:12.669Z,11.90
2023-02-14T13:08:33.922Z,10.93
2023-02-14T13:10:53.916Z,10.05
2023-02-14T13:13:20.913Z,12.50
2023-02-14T13:15:27.306Z,12.18
2023-02-14T13:17:42.830Z,13.43
2023-02-14T13:20:00.560Z,10.70
2023-02-14T13:22:02.666Z,11.68
2023-02-14T13:24:18.470Z,11.13
2023-02-14T13:26:32.541Z,21.95
2023-02-14T13:28:36.549Z,8.98
2023-02-14T13:30:38.945Z,9.63
2023-02-14T13:32:42.346Z,11.40
2023-02-14T13:34:47.200Z,11.05
2023-02-14T13:36:49.256Z,9.35
2023-02-14T13:41:05.487Z,13.15
2023-02-14T13:43:07.656Z,9.75
2023-02-14T13:45:29.673Z,10.35
2023-02-14T13:47:31.822Z,20.27
2023-02-14T13:49:34.789Z,18.58
2023-02-14T13:51:57.684Z,14.90
2023-02-14T13:54:00.833Z,14.48
2023-02-14T13:56:12.665Z,20.75
2023-02-14T13:58:24.338Z,13.75
2023-02-14T14:00:40.985Z,17.80
2023-02-14T14:02:56.140Z,15.73
2023-02-14T14:04:58.248Z,13.25
2023-02-14T14:07:03.358Z,16.02
2023-02-14T14:09:05.427Z,11.68
2023-02-14T14:11:22.114Z,19.67
2023-02-14T14:13:42.614Z,11.50
2023-02-14T14:16:23.282Z,14.40
2023-02-14T14:18:28.120Z,12.23
2023-02-14T14:20:31.757Z,10.05
2023-02-14T14:22:36.563Z,14.13
2023-02-14T14:24:54.741Z,13.27
2023-02-14T14:27:21.854Z,10.02
2023-02-14T14:29:53.680Z,12.50
2023-02-14T14:31:56.300Z,11.77
2023-02-14T14:36:08.367Z,13.15
2023-02-14T14:38:13.256Z,11.55
2023-02-14T14:40:32.181Z,16.30
2023-02-14T14:42:40.118Z,15.82
2023-02-14T14:45:09.741Z,16.52
2023-02-14T14:47:24.893Z,17.08
2023-02-14T14:49:26.944Z,18.35
2023-02-14T14:51:31.385Z,13.90
2023-02-14T14:53:47.202Z,12.95
2023-02-14T14:55:52.179Z,15.73
2023-02-14T14:58:00.213Z,12.98
2023-02-14T15:00:22.307Z,15.38
2023-02-14T15:02:27.202Z,15.90
2023-02-14T15:04:35.900Z,18.25
2023-02-14T15:06:38.386Z,22.40
2023-02-14T15:08:40.397Z,18.20
2023-02-14T15:10:43.180Z,16.95
2023-02-14T15:13:18.936Z,17.88
2023-02-14T15:15:20.963Z,15.07
2023-02-14T15:17:30.739Z,14.25
2023-02-14T15:19:57.353Z,19.88
2023-02-14T15:22:07.736Z,19.02
2023-02-14T15:24:17.531Z,19.25
2023-02-14T15:26:27.125Z,15.48
2023-02-14T15:28:33.704Z,21.55
2023-02-14T15:30:38.096Z,18.35
2023-02-14T15:32:40.309Z,15.27
2023-02-14T15:34:42.389Z,15.50
2023-02-14T15:36:52.281Z,16.55
2023-02-14T15:38:55.140Z,20.00
2023-02-14T15:40:57.189Z,20.50
2023-02-14T15:43:19.410Z,25.00
2023-02-14T15:45:23.806Z,23.42
2023-02-14T15:47:25.856Z,19.95
2023-02-14T15:49:36.685Z,25.50
2023-02-14T15:51:38.949Z,23.27
2023-02-14T15:54:25.333Z,26.45
2023-02-14T15:56:50.654Z,28.17
2023-02-14T15:59:31.511Z,30.13
2023-02-14T16:01:34.594Z,40.67
2023-02-14T16:03:58.971Z,40.13
2023-02-14T16:06:39.912Z,31.20
2023-02-14T16:09:03.204Z,27.88
2023-02-14T16:11:33.363Z,21.65
2023-02-14T16:13:37.246Z,29.10
2023-02-14T16:15:55.546Z,29.52
2023-02-14T16:17:58.134Z,37.78
2023-02-14T16:20:00.269Z,36.40
2023-02-14T16:22:02.492Z,33.63
2023-02-14T16:24:07.652Z,29.85
2023-02-14T16:26:09.744Z,30.48
2023-02-14T16:28:12.112Z,30.88
2023-02-14T16:30:18.566Z,36.67
2023-02-14T16:32:22.271Z,41.47
2023-02-14T16:34:24.544Z,47.78
2023-02-14T16:36:31.388Z,47.00
2023-02-14T16:38:37.014Z,44.03
2023-02-14T16:40:39.189Z,37.95
2023-02-14T16:42:41.255Z,41.63
2023-02-14T16:44:44.053Z,36.42
2023-02-14T16:48:52.851Z,37.47
2023-02-14T16:50:55.282Z,35.05
2023-02-14T16:52:58.474Z,39.40
2023-02-14T16:55:00.564Z,31.60
2023-02-14T16:57:03.812Z,32.60
2023-02-14T16:59:05.991Z,35.25
2023-02-14T17:01:08.155Z,43.42
2023-02-14T17:03:11.633Z,56.05
2023-02-14T17:05:13.795Z,63.38
2023-02-14T17:07:16.051Z,48.10
2023-02-14T17:09:20.371Z,61.85
2023-02-14T17:11:23.411Z,50.63
2023-02-14T17:13:26.644Z,56.47
2023-02-14T17:15:28.739Z,51.38
2023-02-14T17:17:30.799Z,52.50
2023-02-14T17:19:33.620Z,49.00
2023-02-14T17:21:35.685Z,50.90
2023-02-14T17:23:37.904Z,56.42
2023-02-14T17:25:40.241Z,60.38
2023-02-14T17:27:44.562Z,83.00
2023-02-14T17:29:46.792Z,76.40
2023-02-14T17:31:48.983Z,64.03
2023-02-14T17:33:51.065Z,54.45
2023-02-14T17:35:53.195Z,74.68
2023-02-14T17:37:55.262Z,70.50
2023-02-14T17:39:57.331Z,65.38
2023-02-14T17:41:59.651Z,71.72
2023-02-14T17:44:02.070Z,70.32
2023-02-14T17:46:06.849Z,86.25
2023-02-14T17:48:11.436Z,72.28
2023-02-14T17:50:14.775Z,75.47
2023-02-14T17:52:16.944Z,70.30
2023-02-14T17:54:19.157Z,65.88
2023-02-14T17:56:23.758Z,73.38
2023-02-14T17:58:25.887Z,73.85
2023-02-14T18:00:28.139Z,62.90
2023-02-14T18:02:30.234Z,63.80
2023-02-14T18:04:34.954Z,66.25
2023-02-14T18:06:40.407Z,69.28
2023-02-14T18:10:48.335Z,67.38
2023-02-14T18:12:50.447Z,64.80
2023-02-14T18:15:10.976Z,63.30
2023-02-14T18:17:13.745Z,69.63
2023-02-14T18:19:17.056Z,61.88
2023-02-14T18:21:21.057Z,84.63
2023-02-14T18:23:23.197Z,126.65
2023-02-14T18:25:25.371Z,121.38
2023-02-14T18:27:45.568Z,90.00
2023-02-14T18:30:07.472Z,85.85
2023-02-14T18:32:09.625Z,96.03
2023-02-14T18:34:11.721Z,98.57
2023-02-14T18:36:16.796Z,87.57
2023-02-14T18:38:19.755Z,79.90
2023-02-14T18:40:21.801Z,70.43
2023-02-14T18:42:23.933Z,73.80
2023-02-14T18:44:28.285Z,63.50
2023-02-14T18:46:33.249Z,75.88
2023-02-14T18:48:35.563Z,78.72
2023-02-14T18:50:37.630Z,77.85
2023-02-14T18:52:39.688Z,73.78
2023-02-14T18:54:41.905Z,65.93
2023-02-14T18:56:44.037Z,76.45
2023-02-14T18:58:50.723Z,70.97
2023-02-14T19:00:53.009Z,72.07
2023-02-14T19:02:55.115Z,81.38
2023-02-14T19:04:57.155Z,71.30
2023-02-14T19:06:59.660Z,69.22
2023-02-14T19:09:02.558Z,59.20
2023-02-14T19:11:09.457Z,61.42
2023-02-14T19:13:11.514Z,61.25
2023-02-14T19:15:13.588Z,68.72
2023-02-14T19:17:16.773Z,59.60
2023-02-14T19:19:19.737Z,64.75
2023-02-14T19:21:26.512Z,62.33
2023-02-14T19:23:28.613Z,67.75
2023-02-14T19:25:32.655Z,59.25
2023-02-14T19:27:35.061Z,63.35
2023-02-14T19:29:38.406Z,57.92
2023-02-14T19:31:46.061Z,58.85
2023-02-14T19:33:48.198Z,67.28
2023-02-14T19:36:02.406Z,67.43
2023-02-14T19:38:04.561Z,56.55
2023-02-14T19:40:07.584Z,66.05
2023-02-14T19:42:09.646Z,70.55
2023-02-14T19:44:13.917Z,66.03
2023-02-14T19:46:16.614Z,65.35
2023-02-14T19:50:22.066Z,99.95
2023-02-14T19:52:26.565Z,88.60
2023-02-14T19:54:30.085Z,144.15
2023-02-14T19:56:34.898Z,124.07
2023-02-14T19:58:37.108Z,124.88
2023-02-14T20:00:39.512Z,97.72
2023-02-14T20:02:48.041Z,122.88
2023-02-14T20:04:50.214Z,146.57
2023-02-14T20:06:52.696Z,131.77
2023-02-14T20:08:54.878Z,135.02
2023-02-14T20:10:57.001Z,189.05
2023-02-14T20:12:59.051Z,195.50
2023-02-14T20:15:01.374Z,165.77
2023-02-14T20:17:05.325Z,150.38
2023-02-14T20:19:13.402Z,130.55
2023-02-14T20:21:24.192Z,119.57
2023-02-14T20:23:26.688Z,120.30
2023-02-14T20:25:28.702Z,117.90
2023-02-14T20:27:30.792Z,102.70
2023-02-14T20:29:33.258Z,132.10
2023-02-14T20:31:36.009Z,161.10
2023-02-14T20:33:57.261Z,151.63
2023-02-14T20:35:59.335Z,151.82
2023-02-14T20:38:01.364Z,149.43
2023-02-14T20:40:03.900Z,131.70
2023-02-14T20:42:06.212Z,138.30
2023-02-14T20:44:10.800Z,143.38
2023-02-14T20:46:13.028Z,128.40
2023-02-14T20:48:15.144Z,135.32
2023-02-14T20:50:17.486Z,125.43
2023-02-14T20:52:19.697Z,111.93
2023-02-14T20:54:26.509Z,129.75
2023-02-14T20:56:29.000Z,126.38
2023-02-14T20:58:31.886Z,119.80
2023-02-14T21:00:34.167Z,128.40
2023-02-14T21:02:41.920Z,124.45
2023-02-14T21:04:44.000Z,124.57
2023-02-14T21:06:47.775Z,118.85
2023-02-14T21:08:50.025Z,128.35
2023-02-14T21:10:52.200Z,126.35
2023-02-14T21:12:55.273Z,117.40
2023-02-14T21:14:57.415Z,130.23
2023-02-14T21:16:59.662Z,133.75
2023-02-14T21:19:01.870Z,119.60
2023-02-14T21:21:06.296Z,131.00
2023-02-14T21:23:08.445Z,108.85
2023-02-14T21:25:10.562Z,115.57
2023-02-14T21:27:12.737Z,108.70
2023-02-14T21:29:14.871Z,110.20
2023-02-14T21:31:21.037Z,104.93
2023-02-14T21:33:25.473Z,114.10
2023-02-14T21:35:27.618Z,106.38
2023-02-14T21:37:29.873Z,108.32
2023-02-14T21:39:35.792Z,109.68
2023-02-14T21:41:38.013Z,112.70
2023-02-14T21:43:42.863Z,98.78
2023-02-14T21:45:54.874Z,119.07
2023-02-14T21:48:15.854Z,154.07
2023-02-14T21:50:33.114Z,109.13
2023-02-14T21:52:35.262Z,119.05
2023-02-14T21:54:37.978Z,132.60
2023-02-14T21:56:41.443Z,129.27
2023-02-14T21:58:43.881Z,130.25
2023-02-14T22:00:48.138Z,134.20
2023-02-14T22:02:50.357Z,152.43
2023-02-14T22:04:52.587Z,193.95
2023-02-14T22:06:54.702Z,412.08
2023-02-14T22:08:58.614Z,240.80
2023-02-14T22:11:04.485Z,196.55
2023-02-14T22:13:06.706Z,167.10
2023-02-14T22:15:09.428Z,172.55
2023-02-14T22:17:11.696Z,156.40
2023-02-14T22:19:15.624Z,169.95
2023-02-14T22:21:20.300Z,162.45
2023-02-14T22:23:24.551Z,173.60
2023-02-14T22:25:26.719Z,151.32
2023-02-14T22:27:30.319Z,153.65
2023-02-14T22:29:32.433Z,160.65
2023-02-14T22:31:44.008Z,153.95
2023-02-14T22:33:46.966Z,160.77
2023-02-14T22:35:49.101Z,175.45
2023-02-14T22:37:52.938Z,171.00
2023-02-14T22:39:55.062Z,162.23
2023-02-14T22:41:57.616Z,170.65
2023-02-14T22:46:17.282Z,150.98
2023-02-14T22:48:20.537Z,160.40
2023-02-14T22:50:22.696Z,151.50
2023-02-14T22:52:26.174Z,160.57
2023-02-14T22:54:28.419Z,147.93
2023-02-14T22:56:39.431Z,155.10
2023-02-14T22:58:41.625Z,157.85
2023-02-14T23:00:44.107Z,176.70
2023-02-14T23:02:46.278Z,203.48
2023-02-14T23:04:49.291Z,201.00
2023-02-14T23:06:52.674Z,217.07
2023-02-14T23:08:54.920Z,232.50
2023-02-14T23:10:57.171Z,221.88
2023-02-14T23:13:18.428Z,229.02
2023-02-14T23:15:39.295Z,247.95
2023-02-14T23:18:00.094Z,207.25
2023-02-14T23:20:20.908Z,209.07
2023-02-14T23:22:37.763Z,202.15
2023-02-14T23:24:40.096Z,193.80
2023-02-14T23:26:42.229Z,187.15
2023-02-14T23:28:44.441Z,191.80
2023-02-14T23:30:46.559Z,182.57
2023-02-14T23:32:48.610Z,180.05
2023-02-14T23:34:50.829Z,176.45
2023-02-14T23:36:52.981Z,181.15
2023-02-14T23:38:55.019Z,181.20
2023-02-14T23:41:15.996Z,168.45
2023-02-14T23:43:18.259Z,176.13
2023-02-14T23:45:35.653Z,198.40
2023-02-14T23:47:37.779Z,191.27
2023-02-14T23:49:40.628Z,193.02
2023-02-14T23:51:42.948Z,198.00
2023-02-14T23:53:45.043Z,196.52
2023-02-14T23:55:47.088Z,201.38
2023-02-14T23:57:49.148Z,229.30
2023-02-14T23:59:51.797Z,221.68
